sensor_id;sensor_type;location;lat;lon;timestamp;temperature;humidity
20714;DHT22;10518;50.742;4.226;2023-04-24T00:01:47;10.80;99.90
20714;DHT22;10518;50.742;4.226;2023-04-24T00:04:13;10.70;99.90
20714;DHT22;10518;50.742;4.226;2023-04-24T00:06:41;10.60;99.90
20714;DHT22;10518;50.742;4.226;2023-04-24T00:09:11;10.70;99.90
20714;DHT22;10518;50.742;4.226;2023-04-24T00:11:37;10.70;99.90
20714;DHT22;10518;50.742;4.226;2023-04-24T00:14:02;10.80;99.90
20714;DHT22;10518;50.742;4.226;2023-04-24T00:16:28;10.80;99.90
20714;DHT22;10518;50.742;4.226;2023-04-24T00:18:54;10.70;99.90
20714;DHT22;10518;50.742;4.226;2023-04-24T00:21:20;10.80;99.90
20714;DHT22;10518;50.742;4.226;2023-04-24T00:23:47;10.80;99.90
20714;DHT22;10518;50.742;4.226;2023-04-24T00:26:13;10.80;99.90
20714;DHT22;10518;50.742;4.226;2023-04-24T00:28:39;10.80;99.90
20714;DHT22;10518;50.742;4.226;2023-04-24T00:31:04;10.70;99.90
20714;DHT22;10518;50.742;4.226;2023-04-24T00:33:30;10.70;99.90
20714;DHT22;10518;50.742;4.226;2023-04-24T00:35:55;10.70;99.90
20714;DHT22;10518;50.742;4.226;2023-04-24T00:38:21;10.60;99.90
20714;DHT22;10518;50.742;4.226;2023-04-24T00:40:48;10.40;99.90
20714;DHT22;10518;50.742;4.226;2023-04-24T00:43:15;10.40;99.90
20714;DHT22;10518;50.742;4.226;2023-04-24T00:45:41;10.40;99.90
20714;DHT22;10518;50.742;4.226;2023-04-24T00:48:07;10.60;99.90
20714;DHT22;10518;50.742;4.226;2023-04-24T00:50:35;10.30;99.90
20714;DHT22;10518;50.742;4.226;2023-04-24T00:53:01;10.00;99.90
20714;DHT22;10518;50.742;4.226;2023-04-24T00:55:26;10.00;99.90
20714;DHT22;10518;50.742;4.226;2023-04-24T00:57:52;9.90;99.90
20714;DHT22;10518;50.742;4.226;2023-04-24T01:00:18;9.90;99.90
20714;DHT22;10518;50.742;4.226;2023-04-24T01:02:45;10.10;99.90
20714;DHT22;10518;50.742;4.226;2023-04-24T01:05:13;10.10;99.90
20714;DHT22;10518;50.742;4.226;2023-04-24T01:07:41;10.10;99.90
20714;DHT22;10518;50.742;4.226;2023-04-24T01:10:10;10.10;99.90
20714;DHT22;10518;50.742;4.226;2023-04-24T01:12:35;10.20;99.90
20714;DHT22;10518;50.742;4.226;2023-04-24T01:15:02;10.30;99.90
20714;DHT22;10518;50.742;4.226;2023-04-24T01:17:29;10.00;99.90
20714;DHT22;10518;50.742;4.226;2023-04-24T01:19:55;9.90;99.90
20714;DHT22;10518;50.742;4.226;2023-04-24T01:22:22;9.90;99.90
20714;DHT22;10518;50.742;4.226;2023-04-24T01:24:48;9.90;99.90
20714;DHT22;10518;50.742;4.226;2023-04-24T01:27:14;10.00;99.90
20714;DHT22;10518;50.742;4.226;2023-04-24T01:29:40;10.20;99.90
20714;DHT22;10518;50.742;4.226;2023-04-24T01:32:06;10.20;99.90
20714;DHT22;10518;50.742;4.226;2023-04-24T01:34:32;10.10;99.90
20714;DHT22;10518;50.742;4.226;2023-04-24T01:36:58;10.00;99.90
20714;DHT22;10518;50.742;4.226;2023-04-24T01:39:24;9.90;99.90
20714;DHT22;10518;50.742;4.226;2023-04-24T01:41:51;10.00;99.90
20714;DHT22;10518;50.742;4.226;2023-04-24T01:44:18;9.90;99.90
20714;DHT22;10518;50.742;4.226;2023-04-24T01:46:44;10.00;99.90
20714;DHT22;10518;50.742;4.226;2023-04-24T01:49:09;10.10;99.90
20714;DHT22;10518;50.742;4.226;2023-04-24T01:51:35;10.10;99.90
20714;DHT22;10518;50.742;4.226;2023-04-24T01:54:01;10.00;99.90
20714;DHT22;10518;50.742;4.226;2023-04-24T01:56:29;9.90;99.90
20714;DHT22;10518;50.742;4.226;2023-04-24T01:58:56;9.90;99.90
20714;DHT22;10518;50.742;4.226;2023-04-24T02:01:23;9.90;99.90
20714;DHT22;10518;50.742;4.226;2023-04-24T02:03:49;9.70;99.90
20714;DHT22;10518;50.742;4.226;2023-04-24T02:06:15;9.70;99.90
20714;DHT22;10518;50.742;4.226;2023-04-24T02:08:41;9.90;99.90
20714;DHT22;10518;50.742;4.226;2023-04-24T02:11:08;10.00;99.90
20714;DHT22;10518;50.742;4.226;2023-04-24T02:13:34;9.90;99.90
20714;DHT22;10518;50.742;4.226;2023-04-24T02:16:00;9.90;99.90
20714;DHT22;10518;50.742;4.226;2023-04-24T02:18:25;9.80;99.90
20714;DHT22;10518;50.742;4.226;2023-04-24T02:20:51;9.80;99.90
20714;DHT22;10518;50.742;4.226;2023-04-24T02:23:17;9.90;99.90
20714;DHT22;10518;50.742;4.226;2023-04-24T02:25:42;10.00;99.90
20714;DHT22;10518;50.742;4.226;2023-04-24T02:28:08;10.10;99.90
20714;DHT22;10518;50.742;4.226;2023-04-24T02:30:33;10.10;99.90
20714;DHT22;10518;50.742;4.226;2023-04-24T02:32:59;10.00;99.90
20714;DHT22;10518;50.742;4.226;2023-04-24T02:35:25;9.90;99.90
20714;DHT22;10518;50.742;4.226;2023-04-24T02:37:50;10.00;99.90
20714;DHT22;10518;50.742;4.226;2023-04-24T02:40:16;10.00;99.90
20714;DHT22;10518;50.742;4.226;2023-04-24T02:42:42;9.80;99.90
20714;DHT22;10518;50.742;4.226;2023-04-24T02:45:07;9.80;99.90
20714;DHT22;10518;50.742;4.226;2023-04-24T02:47:33;9.80;99.90
20714;DHT22;10518;50.742;4.226;2023-04-24T02:49:59;9.90;99.90
20714;DHT22;10518;50.742;4.226;2023-04-24T02:52:24;9.60;99.90
20714;DHT22;10518;50.742;4.226;2023-04-24T02:54:50;9.60;99.90
20714;DHT22;10518;50.742;4.226;2023-04-24T02:57:15;9.40;99.90
20714;DHT22;10518;50.742;4.226;2023-04-24T02:59:41;9.50;99.90
20714;DHT22;10518;50.742;4.226;2023-04-24T03:02:07;9.70;99.90
20714;DHT22;10518;50.742;4.226;2023-04-24T03:04:32;9.90;99.90
20714;DHT22;10518;50.742;4.226;2023-04-24T03:06:58;9.90;99.90
20714;DHT22;10518;50.742;4.226;2023-04-24T03:09:24;9.70;99.90
20714;DHT22;10518;50.742;4.226;2023-04-24T03:11:50;9.80;99.90
20714;DHT22;10518;50.742;4.226;2023-04-24T03:14:16;9.80;99.90
20714;DHT22;10518;50.742;4.226;2023-04-24T03:16:41;9.90;99.90
20714;DHT22;10518;50.742;4.226;2023-04-24T03:19:07;10.00;99.90
20714;DHT22;10518;50.742;4.226;2023-04-24T03:21:33;10.20;99.90
20714;DHT22;10518;50.742;4.226;2023-04-24T03:23:58;10.10;99.90
20714;DHT22;10518;50.742;4.226;2023-04-24T03:26:24;10.00;99.90
20714;DHT22;10518;50.742;4.226;2023-04-24T03:28:50;10.00;99.90
20714;DHT22;10518;50.742;4.226;2023-04-24T03:31:15;9.90;99.90
20714;DHT22;10518;50.742;4.226;2023-04-24T03:33:42;10.00;99.90
20714;DHT22;10518;50.742;4.226;2023-04-24T03:36:07;10.30;99.90
20714;DHT22;10518;50.742;4.226;2023-04-24T03:38:33;10.40;99.90
20714;DHT22;10518;50.742;4.226;2023-04-24T03:40:58;10.40;99.90
20714;DHT22;10518;50.742;4.226;2023-04-24T03:43:24;10.40;99.90
20714;DHT22;10518;50.742;4.226;2023-04-24T03:45:50;10.30;99.90
20714;DHT22;10518;50.742;4.226;2023-04-24T03:48:16;10.20;99.90
20714;DHT22;10518;50.742;4.226;2023-04-24T03:50:41;10.40;99.90
20714;DHT22;10518;50.742;4.226;2023-04-24T03:53:07;10.50;99.90
20714;DHT22;10518;50.742;4.226;2023-04-24T03:55:33;10.40;99.90
20714;DHT22;10518;50.742;4.226;2023-04-24T03:57:59;10.30;99.90
20714;DHT22;10518;50.742;4.226;2023-04-24T04:00:24;10.30;99.90
20714;DHT22;10518;50.742;4.226;2023-04-24T04:02:51;10.30;99.90
20714;DHT22;10518;50.742;4.226;2023-04-24T04:05:16;10.40;99.90
20714;DHT22;10518;50.742;4.226;2023-04-24T04:07:42;10.40;99.90
20714;DHT22;10518;50.742;4.226;2023-04-24T04:10:08;10.30;99.90
20714;DHT22;10518;50.742;4.226;2023-04-24T04:12:33;10.30;99.90
20714;DHT22;10518;50.742;4.226;2023-04-24T04:14:59;10.40;99.90
20714;DHT22;10518;50.742;4.226;2023-04-24T04:17:25;10.50;99.90
20714;DHT22;10518;50.742;4.226;2023-04-24T04:19:51;10.40;99.90
20714;DHT22;10518;50.742;4.226;2023-04-24T04:22:16;10.30;99.90
20714;DHT22;10518;50.742;4.226;2023-04-24T04:24:42;10.40;99.90
20714;DHT22;10518;50.742;4.226;2023-04-24T04:27:08;10.30;99.90
20714;DHT22;10518;50.742;4.226;2023-04-24T04:29:34;10.30;99.90
20714;DHT22;10518;50.742;4.226;2023-04-24T04:32:01;10.30;99.90
20714;DHT22;10518;50.742;4.226;2023-04-24T04:34:27;10.30;99.90
20714;DHT22;10518;50.742;4.226;2023-04-24T04:36:53;10.10;99.90
20714;DHT22;10518;50.742;4.226;2023-04-24T04:39:18;10.30;99.90
20714;DHT22;10518;50.742;4.226;2023-04-24T04:41:45;10.30;99.90
20714;DHT22;10518;50.742;4.226;2023-04-24T04:44:14;10.10;99.90
20714;DHT22;10518;50.742;4.226;2023-04-24T04:46:40;10.30;99.90
20714;DHT22;10518;50.742;4.226;2023-04-24T04:49:07;10.20;99.90
20714;DHT22;10518;50.742;4.226;2023-04-24T04:51:34;10.10;99.90
20714;DHT22;10518;50.742;4.226;2023-04-24T04:54:00;10.00;99.90
20714;DHT22;10518;50.742;4.226;2023-04-24T04:56:25;10.00;99.90
20714;DHT22;10518;50.742;4.226;2023-04-24T04:58:51;10.10;99.90
20714;DHT22;10518;50.742;4.226;2023-04-24T05:01:17;10.10;99.90
20714;DHT22;10518;50.742;4.226;2023-04-24T05:03:43;10.00;99.90
20714;DHT22;10518;50.742;4.226;2023-04-24T05:06:08;10.00;99.90
20714;DHT22;10518;50.742;4.226;2023-04-24T05:08:34;10.00;99.90
20714;DHT22;10518;50.742;4.226;2023-04-24T05:11:00;10.10;99.90
20714;DHT22;10518;50.742;4.226;2023-04-24T05:13:26;10.30;99.90
20714;DHT22;10518;50.742;4.226;2023-04-24T05:15:52;10.30;99.90
20714;DHT22;10518;50.742;4.226;2023-04-24T05:18:17;10.30;99.90
20714;DHT22;10518;50.742;4.226;2023-04-24T05:20:43;10.30;99.90
20714;DHT22;10518;50.742;4.226;2023-04-24T05:23:09;10.20;99.90
20714;DHT22;10518;50.742;4.226;2023-04-24T05:25:35;10.10;99.90
20714;DHT22;10518;50.742;4.226;2023-04-24T05:28:01;10.20;99.90
20714;DHT22;10518;50.742;4.226;2023-04-24T05:30:27;10.10;99.90
20714;DHT22;10518;50.742;4.226;2023-04-24T05:32:53;10.20;99.90
20714;DHT22;10518;50.742;4.226;2023-04-24T05:35:19;10.30;99.90
20714;DHT22;10518;50.742;4.226;2023-04-24T05:37:44;10.30;99.90
20714;DHT22;10518;50.742;4.226;2023-04-24T05:40:10;10.20;99.90
20714;DHT22;10518;50.742;4.226;2023-04-24T05:42:36;10.20;99.90
20714;DHT22;10518;50.742;4.226;2023-04-24T05:45:02;10.00;99.90
20714;DHT22;10518;50.742;4.226;2023-04-24T05:47:28;10.10;99.90
20714;DHT22;10518;50.742;4.226;2023-04-24T05:49:54;10.20;99.90
20714;DHT22;10518;50.742;4.226;2023-04-24T05:52:19;10.10;99.90
20714;DHT22;10518;50.742;4.226;2023-04-24T05:54:45;10.10;99.90
20714;DHT22;10518;50.742;4.226;2023-04-24T05:57:11;10.30;99.90
20714;DHT22;10518;50.742;4.226;2023-04-24T05:59:37;10.40;99.90
20714;DHT22;10518;50.742;4.226;2023-04-24T06:02:06;10.40;99.90
20714;DHT22;10518;50.742;4.226;2023-04-24T06:04:32;10.40;99.90
20714;DHT22;10518;50.742;4.226;2023-04-24T06:06:59;10.30;99.90
20714;DHT22;10518;50.742;4.226;2023-04-24T06:09:25;10.30;99.90
20714;DHT22;10518;50.742;4.226;2023-04-24T06:11:51;10.40;99.90
20714;DHT22;10518;50.742;4.226;2023-04-24T06:14:19;10.30;99.90
20714;DHT22;10518;50.742;4.226;2023-04-24T06:16:45;10.30;99.90
20714;DHT22;10518;50.742;4.226;2023-04-24T06:19:10;10.30;99.90
20714;DHT22;10518;50.742;4.226;2023-04-24T06:21:36;10.10;99.90
20714;DHT22;10518;50.742;4.226;2023-04-24T06:24:02;10.20;99.90
20714;DHT22;10518;50.742;4.226;2023-04-24T06:26:29;10.20;99.90
20714;DHT22;10518;50.742;4.226;2023-04-24T06:28:54;10.30;99.90
20714;DHT22;10518;50.742;4.226;2023-04-24T06:31:20;10.30;99.90
20714;DHT22;10518;50.742;4.226;2023-04-24T06:33:47;10.30;99.90
20714;DHT22;10518;50.742;4.226;2023-04-24T06:36:13;10.30;99.90
20714;DHT22;10518;50.742;4.226;2023-04-24T06:38:38;10.30;99.90
20714;DHT22;10518;50.742;4.226;2023-04-24T06:41:04;10.20;99.90
20714;DHT22;10518;50.742;4.226;2023-04-24T06:43:31;10.30;99.90
20714;DHT22;10518;50.742;4.226;2023-04-24T06:45:57;10.50;99.90
20714;DHT22;10518;50.742;4.226;2023-04-24T06:48:24;10.40;99.90
20714;DHT22;10518;50.742;4.226;2023-04-24T06:50:50;10.30;99.90
20714;DHT22;10518;50.742;4.226;2023-04-24T06:53:16;10.40;99.90
20714;DHT22;10518;50.742;4.226;2023-04-24T06:55:42;10.50;99.90
20714;DHT22;10518;50.742;4.226;2023-04-24T06:58:08;10.60;99.90
20714;DHT22;10518;50.742;4.226;2023-04-24T07:00:34;10.80;99.90
20714;DHT22;10518;50.742;4.226;2023-04-24T07:03:00;10.80;99.90
20714;DHT22;10518;50.742;4.226;2023-04-24T07:05:26;10.70;99.90
20714;DHT22;10518;50.742;4.226;2023-04-24T07:07:51;10.80;99.90
20714;DHT22;10518;50.742;4.226;2023-04-24T07:10:17;10.90;99.90
20714;DHT22;10518;50.742;4.226;2023-04-24T07:12:43;11.00;99.90
20714;DHT22;10518;50.742;4.226;2023-04-24T07:15:09;11.20;99.90
20714;DHT22;10518;50.742;4.226;2023-04-24T07:17:35;11.20;99.90
20714;DHT22;10518;50.742;4.226;2023-04-24T07:20:04;11.20;99.90
20714;DHT22;10518;50.742;4.226;2023-04-24T07:22:30;11.20;99.90
20714;DHT22;10518;50.742;4.226;2023-04-24T07:24:55;11.20;99.90
20714;DHT22;10518;50.742;4.226;2023-04-24T07:27:21;11.00;99.90
20714;DHT22;10518;50.742;4.226;2023-04-24T07:29:47;11.10;99.90
20714;DHT22;10518;50.742;4.226;2023-04-24T07:32:12;11.10;99.90
20714;DHT22;10518;50.742;4.226;2023-04-24T07:34:38;10.90;99.90
20714;DHT22;10518;50.742;4.226;2023-04-24T07:37:03;11.00;99.90
20714;DHT22;10518;50.742;4.226;2023-04-24T07:39:29;11.20;99.90
20714;DHT22;10518;50.742;4.226;2023-04-24T07:41:55;11.30;99.90
20714;DHT22;10518;50.742;4.226;2023-04-24T07:44:20;11.40;99.90
20714;DHT22;10518;50.742;4.226;2023-04-24T07:46:46;11.50;99.90
20714;DHT22;10518;50.742;4.226;2023-04-24T07:49:12;11.70;99.90
20714;DHT22;10518;50.742;4.226;2023-04-24T07:51:38;11.60;99.90
20714;DHT22;10518;50.742;4.226;2023-04-24T07:54:05;11.50;99.90
20714;DHT22;10518;50.742;4.226;2023-04-24T07:56:34;11.40;99.90
20714;DHT22;10518;50.742;4.226;2023-04-24T07:59:00;11.20;99.90
20714;DHT22;10518;50.742;4.226;2023-04-24T08:01:26;11.20;99.90
20714;DHT22;10518;50.742;4.226;2023-04-24T08:03:52;11.30;99.90
20714;DHT22;10518;50.742;4.226;2023-04-24T08:06:18;11.40;99.90
20714;DHT22;10518;50.742;4.226;2023-04-24T08:08:43;11.40;99.90
20714;DHT22;10518;50.742;4.226;2023-04-24T08:11:09;11.40;99.90
20714;DHT22;10518;50.742;4.226;2023-04-24T08:13:35;11.70;99.90
20714;DHT22;10518;50.742;4.226;2023-04-24T08:16:00;11.90;99.90
20714;DHT22;10518;50.742;4.226;2023-04-24T08:18:26;12.00;99.90
20714;DHT22;10518;50.742;4.226;2023-04-24T08:20:52;12.10;99.90
20714;DHT22;10518;50.742;4.226;2023-04-24T08:23:17;12.00;99.90
20714;DHT22;10518;50.742;4.226;2023-04-24T08:25:43;12.10;99.90
20714;DHT22;10518;50.742;4.226;2023-04-24T08:28:09;12.40;99.90
20714;DHT22;10518;50.742;4.226;2023-04-24T08:30:35;12.50;99.90
20714;DHT22;10518;50.742;4.226;2023-04-24T08:33:01;12.60;99.90
20714;DHT22;10518;50.742;4.226;2023-04-24T08:35:26;12.80;99.90
20714;DHT22;10518;50.742;4.226;2023-04-24T08:37:52;13.10;99.90
20714;DHT22;10518;50.742;4.226;2023-04-24T08:40:24;13.30;99.90
20714;DHT22;10518;50.742;4.226;2023-04-24T08:42:54;13.50;99.90
20714;DHT22;10518;50.742;4.226;2023-04-24T08:45:20;13.60;99.90
20714;DHT22;10518;50.742;4.226;2023-04-24T08:47:47;13.50;99.90
20714;DHT22;10518;50.742;4.226;2023-04-24T08:50:13;13.30;99.90
20714;DHT22;10518;50.742;4.226;2023-04-24T08:52:38;13.30;99.90
20714;DHT22;10518;50.742;4.226;2023-04-24T08:55:05;13.50;99.90
20714;DHT22;10518;50.742;4.226;2023-04-24T08:57:31;13.70;99.90
20714;DHT22;10518;50.742;4.226;2023-04-24T08:59:58;13.60;99.90
20714;DHT22;10518;50.742;4.226;2023-04-24T09:02:25;13.40;99.90
20714;DHT22;10518;50.742;4.226;2023-04-24T09:04:51;13.00;99.90
20714;DHT22;10518;50.742;4.226;2023-04-24T09:07:18;12.90;99.90
20714;DHT22;10518;50.742;4.226;2023-04-24T09:09:45;12.80;99.90
20714;DHT22;10518;50.742;4.226;2023-04-24T09:12:11;12.60;99.90
20714;DHT22;10518;50.742;4.226;2023-04-24T09:14:37;12.70;99.90
20714;DHT22;10518;50.742;4.226;2023-04-24T09:17:07;12.90;99.90
20714;DHT22;10518;50.742;4.226;2023-04-24T09:19:33;12.90;99.90
20714;DHT22;10518;50.742;4.226;2023-04-24T09:21:59;13.10;99.90
20714;DHT22;10518;50.742;4.226;2023-04-24T09:24:24;13.10;99.90
20714;DHT22;10518;50.742;4.226;2023-04-24T09:26:59;13.10;99.90
20714;DHT22;10518;50.742;4.226;2023-04-24T09:29:27;13.10;99.90
20714;DHT22;10518;50.742;4.226;2023-04-24T09:31:53;13.10;99.90
20714;DHT22;10518;50.742;4.226;2023-04-24T09:34:23;13.10;99.90
20714;DHT22;10518;50.742;4.226;2023-04-24T09:36:49;13.30;99.90
20714;DHT22;10518;50.742;4.226;2023-04-24T09:39:16;13.40;99.90
20714;DHT22;10518;50.742;4.226;2023-04-24T09:44:18;13.80;99.90
20714;DHT22;10518;50.742;4.226;2023-04-24T09:46:58;13.70;99.90
20714;DHT22;10518;50.742;4.226;2023-04-24T09:49:28;13.60;99.90
20714;DHT22;10518;50.742;4.226;2023-04-24T09:52:08;13.50;99.90
20714;DHT22;10518;50.742;4.226;2023-04-24T09:54:34;13.40;99.90
20714;DHT22;10518;50.742;4.226;2023-04-24T09:57:02;13.30;99.90
20714;DHT22;10518;50.742;4.226;2023-04-24T09:59:28;13.30;99.90
20714;DHT22;10518;50.742;4.226;2023-04-24T10:01:53;13.40;99.90
20714;DHT22;10518;50.742;4.226;2023-04-24T10:04:21;13.30;99.90
20714;DHT22;10518;50.742;4.226;2023-04-24T10:06:51;13.20;99.90
20714;DHT22;10518;50.742;4.226;2023-04-24T10:09:24;13.10;99.90
20714;DHT22;10518;50.742;4.226;2023-04-24T10:11:52;13.10;99.90
20714;DHT22;10518;50.742;4.226;2023-04-24T10:14:27;13.30;99.90
20714;DHT22;10518;50.742;4.226;2023-04-24T10:16:55;13.60;99.90
20714;DHT22;10518;50.742;4.226;2023-04-24T10:19:25;13.90;99.90
20714;DHT22;10518;50.742;4.226;2023-04-24T10:21:52;14.10;99.90
20714;DHT22;10518;50.742;4.226;2023-04-24T10:24:19;14.40;99.90
20714;DHT22;10518;50.742;4.226;2023-04-24T10:26:48;14.50;99.90
20714;DHT22;10518;50.742;4.226;2023-04-24T10:29:18;14.50;99.90
20714;DHT22;10518;50.742;4.226;2023-04-24T10:31:44;14.60;99.90
20714;DHT22;10518;50.742;4.226;2023-04-24T10:34:15;14.50;99.90
20714;DHT22;10518;50.742;4.226;2023-04-24T10:36:45;14.30;99.90
20714;DHT22;10518;50.742;4.226;2023-04-24T10:39:13;14.00;99.90
20714;DHT22;10518;50.742;4.226;2023-04-24T10:41:40;13.90;99.90
20714;DHT22;10518;50.742;4.226;2023-04-24T10:44:07;13.60;99.90
20714;DHT22;10518;50.742;4.226;2023-04-24T10:46:33;13.50;99.90
20714;DHT22;10518;50.742;4.226;2023-04-24T10:48:59;13.60;99.90
20714;DHT22;10518;50.742;4.226;2023-04-24T10:51:52;13.30;99.90
20714;DHT22;10518;50.742;4.226;2023-04-24T10:57:25;13.80;99.90
20714;DHT22;10518;50.742;4.226;2023-04-24T10:59:39;14.20;99.90
20714;DHT22;10518;50.742;4.226;2023-04-24T11:02:07;14.20;99.90
20714;DHT22;10518;50.742;4.226;2023-04-24T11:04:33;14.20;99.90
20714;DHT22;10518;50.742;4.226;2023-04-24T11:07:00;14.30;99.90
20714;DHT22;10518;50.742;4.226;2023-04-24T11:09:27;14.20;99.90
20714;DHT22;10518;50.742;4.226;2023-04-24T11:12:03;14.10;99.90
20714;DHT22;10518;50.742;4.226;2023-04-24T11:14:30;14.00;99.90
20714;DHT22;10518;50.742;4.226;2023-04-24T11:16:55;14.00;99.90
20714;DHT22;10518;50.742;4.226;2023-04-24T11:19:26;14.00;99.90
20714;DHT22;10518;50.742;4.226;2023-04-24T11:22:02;14.10;99.90
20714;DHT22;10518;50.742;4.226;2023-04-24T11:27:17;14.20;99.90
20714;DHT22;10518;50.742;4.226;2023-04-24T11:32:35;14.20;99.90
20714;DHT22;10518;50.742;4.226;2023-04-24T11:37:46;14.30;99.90
20714;DHT22;10518;50.742;4.226;2023-04-24T11:40:14;14.30;99.90
20714;DHT22;10518;50.742;4.226;2023-04-24T11:42:43;14.50;99.90
20714;DHT22;10518;50.742;4.226;2023-04-24T11:47:39;14.90;99.90
20714;DHT22;10518;50.742;4.226;2023-04-24T11:50:07;15.00;99.90
20714;DHT22;10518;50.742;4.226;2023-04-24T11:52:37;15.00;99.90
20714;DHT22;10518;50.742;4.226;2023-04-24T11:55:03;15.00;99.90
20714;DHT22;10518;50.742;4.226;2023-04-24T11:57:29;15.20;99.90
20714;DHT22;10518;50.742;4.226;2023-04-24T12:00:04;15.10;99.90
20714;DHT22;10518;50.742;4.226;2023-04-24T12:02:30;15.30;99.90
20714;DHT22;10518;50.742;4.226;2023-04-24T12:04:56;15.20;99.90
20714;DHT22;10518;50.742;4.226;2023-04-24T12:07:23;15.20;99.90
20714;DHT22;10518;50.742;4.226;2023-04-24T12:09:59;15.20;99.90
20714;DHT22;10518;50.742;4.226;2023-04-24T12:12:28;15.20;99.90
20714;DHT22;10518;50.742;4.226;2023-04-24T12:14:55;15.00;99.90
20714;DHT22;10518;50.742;4.226;2023-04-24T12:17:41;15.10;99.90
20714;DHT22;10518;50.742;4.226;2023-04-24T12:20:08;15.00;99.90
20714;DHT22;10518;50.742;4.226;2023-04-24T12:22:47;15.10;99.90
20714;DHT22;10518;50.742;4.226;2023-04-24T12:25:16;14.90;99.90
20714;DHT22;10518;50.742;4.226;2023-04-24T12:27:46;14.80;99.90
20714;DHT22;10518;50.742;4.226;2023-04-24T12:30:16;14.50;99.90
20714;DHT22;10518;50.742;4.226;2023-04-24T12:32:46;14.30;99.90
20714;DHT22;10518;50.742;4.226;2023-04-24T12:35:13;14.20;99.90
20714;DHT22;10518;50.742;4.226;2023-04-24T12:37:42;14.20;99.90
20714;DHT22;10518;50.742;4.226;2023-04-24T12:40:10;14.30;99.90
20714;DHT22;10518;50.742;4.226;2023-04-24T12:42:41;14.30;99.90
20714;DHT22;10518;50.742;4.226;2023-04-24T12:45:07;14.20;99.90
20714;DHT22;10518;50.742;4.226;2023-04-24T12:47:33;14.40;99.90
20714;DHT22;10518;50.742;4.226;2023-04-24T12:50:00;14.50;99.90
20714;DHT22;10518;50.742;4.226;2023-04-24T12:52:28;14.80;99.90
20714;DHT22;10518;50.742;4.226;2023-04-24T12:54:56;14.80;99.90
20714;DHT22;10518;50.742;4.226;2023-04-24T12:57:23;14.60;99.90
20714;DHT22;10518;50.742;4.226;2023-04-24T12:59:49;14.40;99.90
20714;DHT22;10518;50.742;4.226;2023-04-24T13:02:14;14.30;99.90
20714;DHT22;10518;50.742;4.226;2023-04-24T13:04:44;14.30;99.90
20714;DHT22;10518;50.742;4.226;2023-04-24T13:07:11;14.20;99.90
20714;DHT22;10518;50.742;4.226;2023-04-24T13:09:37;14.20;99.90
20714;DHT22;10518;50.742;4.226;2023-04-24T13:12:03;14.20;99.90
20714;DHT22;10518;50.742;4.226;2023-04-24T13:14:31;14.20;99.90
20714;DHT22;10518;50.742;4.226;2023-04-24T13:16:56;14.30;99.90
20714;DHT22;10518;50.742;4.226;2023-04-24T13:19:24;14.50;99.90
20714;DHT22;10518;50.742;4.226;2023-04-24T13:21:51;14.70;99.90
20714;DHT22;10518;50.742;4.226;2023-04-24T13:24:16;14.80;99.90
20714;DHT22;10518;50.742;4.226;2023-04-24T13:26:42;14.90;99.90
20714;DHT22;10518;50.742;4.226;2023-04-24T13:29:08;15.00;99.90
20714;DHT22;10518;50.742;4.226;2023-04-24T13:31:34;15.20;99.90
20714;DHT22;10518;50.742;4.226;2023-04-24T13:34:01;15.50;99.90
20714;DHT22;10518;50.742;4.226;2023-04-24T13:36:27;15.50;99.90
20714;DHT22;10518;50.742;4.226;2023-04-24T13:38:53;15.40;99.90
20714;DHT22;10518;50.742;4.226;2023-04-24T13:41:18;15.40;99.90
20714;DHT22;10518;50.742;4.226;2023-04-24T13:43:44;15.40;99.90
20714;DHT22;10518;50.742;4.226;2023-04-24T13:46:10;15.50;99.90
20714;DHT22;10518;50.742;4.226;2023-04-24T13:48:35;15.20;99.90
20714;DHT22;10518;50.742;4.226;2023-04-24T13:51:01;15.30;99.90
20714;DHT22;10518;50.742;4.226;2023-04-24T13:53:27;15.30;99.90
20714;DHT22;10518;50.742;4.226;2023-04-24T13:55:53;15.00;99.90
20714;DHT22;10518;50.742;4.226;2023-04-24T13:58:18;14.90;99.90
20714;DHT22;10518;50.742;4.226;2023-04-24T14:00:44;14.80;99.90
20714;DHT22;10518;50.742;4.226;2023-04-24T14:03:10;14.60;99.90
20714;DHT22;10518;50.742;4.226;2023-04-24T14:05:36;14.60;99.90
20714;DHT22;10518;50.742;4.226;2023-04-24T14:08:01;14.60;99.90
20714;DHT22;10518;50.742;4.226;2023-04-24T14:10:27;14.50;99.90
20714;DHT22;10518;50.742;4.226;2023-04-24T14:12:53;14.30;99.90
20714;DHT22;10518;50.742;4.226;2023-04-24T14:15:19;14.30;99.90
20714;DHT22;10518;50.742;4.226;2023-04-24T14:17:45;14.20;99.90
20714;DHT22;10518;50.742;4.226;2023-04-24T14:20:12;14.20;99.90
20714;DHT22;10518;50.742;4.226;2023-04-24T14:22:38;14.10;99.90
20714;DHT22;10518;50.742;4.226;2023-04-24T14:25:04;14.10;99.90
20714;DHT22;10518;50.742;4.226;2023-04-24T14:27:32;14.10;99.90
20714;DHT22;10518;50.742;4.226;2023-04-24T14:29:57;14.20;99.90
20714;DHT22;10518;50.742;4.226;2023-04-24T14:32:23;14.10;99.90
20714;DHT22;10518;50.742;4.226;2023-04-24T14:34:49;14.10;99.90
20714;DHT22;10518;50.742;4.226;2023-04-24T14:37:15;14.20;99.90
20714;DHT22;10518;50.742;4.226;2023-04-24T14:39:40;14.10;99.90
20714;DHT22;10518;50.742;4.226;2023-04-24T14:42:06;14.30;99.90
20714;DHT22;10518;50.742;4.226;2023-04-24T14:44:32;14.30;99.90
20714;DHT22;10518;50.742;4.226;2023-04-24T14:46:58;14.50;99.90
20714;DHT22;10518;50.742;4.226;2023-04-24T14:49:24;14.60;99.90
20714;DHT22;10518;50.742;4.226;2023-04-24T14:51:49;14.60;99.90
20714;DHT22;10518;50.742;4.226;2023-04-24T14:54:15;14.50;99.90
20714;DHT22;10518;50.742;4.226;2023-04-24T14:56:41;14.50;99.90
20714;DHT22;10518;50.742;4.226;2023-04-24T14:59:08;14.40;99.90
20714;DHT22;10518;50.742;4.226;2023-04-24T15:01:33;14.30;99.90
20714;DHT22;10518;50.742;4.226;2023-04-24T15:03:59;14.00;99.90
20714;DHT22;10518;50.742;4.226;2023-04-24T15:06:25;14.10;99.90
20714;DHT22;10518;50.742;4.226;2023-04-24T15:08:50;14.00;99.90
20714;DHT22;10518;50.742;4.226;2023-04-24T15:11:16;14.10;99.90
20714;DHT22;10518;50.742;4.226;2023-04-24T15:13:42;14.00;99.90
20714;DHT22;10518;50.742;4.226;2023-04-24T15:16:07;13.90;99.90
20714;DHT22;10518;50.742;4.226;2023-04-24T15:18:33;13.90;99.90
20714;DHT22;10518;50.742;4.226;2023-04-24T15:20:59;13.90;99.90
20714;DHT22;10518;50.742;4.226;2023-04-24T15:23:24;13.90;99.90
20714;DHT22;10518;50.742;4.226;2023-04-24T15:25:50;14.00;99.90
20714;DHT22;10518;50.742;4.226;2023-04-24T15:28:16;14.00;99.90
20714;DHT22;10518;50.742;4.226;2023-04-24T15:30:43;13.90;99.90
20714;DHT22;10518;50.742;4.226;2023-04-24T15:33:08;13.90;99.90
20714;DHT22;10518;50.742;4.226;2023-04-24T15:35:34;13.90;99.90
20714;DHT22;10518;50.742;4.226;2023-04-24T15:38:00;14.00;99.90
20714;DHT22;10518;50.742;4.226;2023-04-24T15:40:27;14.00;99.90
20714;DHT22;10518;50.742;4.226;2023-04-24T15:42:53;14.00;99.90
20714;DHT22;10518;50.742;4.226;2023-04-24T15:45:19;13.90;99.90